createdAt,value
2022-08-16T00:02:33.313Z,3.28
2022-08-16T00:05:00.967Z,4.57
2022-08-16T00:07:29.742Z,3.47
2022-08-16T00:09:57.588Z,4.10
2022-08-16T00:12:27.545Z,3.53
2022-08-16T00:14:56.421Z,4.65
2022-08-16T00:17:24.977Z,3.55
2022-08-16T00:19:53.631Z,3.80
2022-08-16T00:22:24.854Z,4.68
2022-08-16T00:24:54.343Z,4.80
2022-08-16T00:27:21.990Z,3.95
2022-08-16T00:30:09.057Z,3.75
2022-08-16T00:32:35.769Z,4.03
2022-08-16T00:35:02.383Z,3.63
2022-08-16T00:37:56.980Z,3.58
2022-08-16T00:40:34.075Z,3.30
2022-08-16T00:43:04.665Z,3.75
2022-08-16T00:45:31.173Z,4.05
2022-08-16T00:48:31.106Z,3.78
2022-08-16T00:53:22.209Z,3.35
2022-08-16T00:56:05.074Z,3.60
2022-08-16T00:58:35.359Z,3.60
2022-08-16T01:01:03.631Z,3.60
2022-08-16T01:03:37.085Z,4.10
2022-08-16T01:06:40.340Z,3.70
2022-08-16T01:09:00.109Z,3.80
2022-08-16T01:11:27.324Z,4.03
2022-08-16T01:14:06.727Z,3.38
2022-08-16T01:16:33.987Z,3.60
2022-08-16T01:19:15.283Z,4.03
2022-08-16T01:21:52.229Z,3.67
2022-08-16T01:24:51.781Z,3.40
2022-08-16T01:27:23.916Z,4.57
2022-08-16T01:30:30.895Z,3.37
2022-08-16T01:33:13.988Z,3.30
2022-08-16T01:35:56.306Z,3.47
2022-08-16T01:41:03.785Z,3.80
2022-08-16T01:43:33.473Z,3.95
2022-08-16T01:46:37.156Z,3.55
2022-08-16T01:48:56.454Z,3.55
2022-08-16T01:51:26.030Z,3.78
2022-08-16T01:53:55.524Z,3.70
2022-08-16T01:56:30.735Z,3.78
2022-08-16T01:59:04.588Z,3.75
2022-08-16T02:01:32.461Z,3.85
2022-08-16T02:04:10.843Z,3.63
2022-08-16T02:06:46.607Z,3.92
2022-08-16T02:09:17.765Z,4.00
2022-08-16T02:11:53.099Z,4.47
2022-08-16T02:14:27.424Z,3.85
2022-08-16T02:17:01.710Z,3.63
2022-08-16T02:19:58.865Z,5.10
2022-08-16T02:22:34.412Z,3.90
2022-08-16T02:25:10.112Z,3.70
2022-08-16T02:27:38.879Z,4.10
2022-08-16T02:30:37.553Z,4.55
2022-08-16T02:33:03.492Z,4.93
2022-08-16T02:35:30.973Z,3.95
2022-08-16T02:38:01.712Z,4.22
2022-08-16T02:40:36.339Z,4.47
2022-08-16T02:43:04.722Z,3.97
2022-08-16T02:45:32.309Z,4.32
2022-08-16T02:48:01.894Z,4.30
2022-08-16T02:50:54.152Z,4.65
2022-08-16T02:53:31.703Z,4.38
2022-08-16T02:55:59.128Z,4.50
2022-08-16T02:58:27.986Z,4.80
2022-08-16T03:00:57.424Z,5.85
2022-08-16T03:03:27.212Z,4.13
2022-08-16T03:06:39.628Z,4.40
2022-08-16T03:09:15.030Z,4.10
2022-08-16T03:11:47.516Z,4.75
2022-08-16T03:14:15.029Z,4.80
2022-08-16T03:16:59.964Z,4.50
2022-08-16T03:19:52.806Z,4.70
2022-08-16T03:22:28.037Z,4.40
2022-08-16T03:24:59.069Z,4.45
2022-08-16T03:27:30.759Z,4.35
2022-08-16T03:30:20.446Z,4.65
2022-08-16T03:32:52.244Z,4.70
2022-08-16T03:35:32.612Z,4.68
2022-08-16T03:38:33.659Z,4.30
2022-08-16T03:40:57.267Z,3.67
2022-08-16T03:43:51.543Z,4.22
2022-08-16T03:46:47.826Z,4.57
2022-08-16T03:49:05.003Z,4.22
2022-08-16T03:51:34.337Z,4.32
2022-08-16T03:54:04.731Z,4.65
2022-08-16T03:56:40.257Z,4.22
2022-08-16T03:59:29.849Z,4.30
2022-08-16T04:02:01.293Z,4.20
2022-08-16T04:04:32.855Z,4.55
2022-08-16T04:07:04.197Z,4.10
2022-08-16T04:09:35.574Z,4.20
2022-08-16T04:12:10.376Z,4.28
2022-08-16T04:14:46.472Z,4.28
2022-08-16T04:17:15.525Z,4.28
2022-08-16T04:19:45.433Z,4.45
2022-08-16T04:22:17.150Z,4.88
2022-08-16T04:24:54.314Z,3.60
2022-08-16T04:27:24.450Z,3.83
2022-08-16T04:29:52.482Z,3.72
2022-08-16T04:32:19.984Z,4.07
2022-08-16T04:34:48.028Z,4.10
2022-08-16T04:37:16.072Z,4.28
2022-08-16T04:39:55.823Z,4.03
2022-08-16T04:42:26.255Z,4.30
2022-08-16T04:44:57.608Z,4.38
2022-08-16T04:47:35.463Z,3.88
2022-08-16T04:50:30.266Z,4.07
2022-08-16T04:53:09.643Z,4.55
2022-08-16T04:55:42.077Z,3.85
2022-08-16T04:58:38.442Z,4.28
2022-08-16T05:00:58.137Z,4.25
2022-08-16T05:03:26.459Z,3.95
2022-08-16T05:05:59.614Z,4.60
2022-08-16T05:08:32.438Z,4.15
2022-08-16T05:11:08.253Z,4.00
2022-08-16T05:13:42.358Z,3.80
2022-08-16T05:16:23.288Z,4.05
2022-08-16T05:19:04.947Z,4.25
2022-08-16T05:21:37.975Z,4.13
2022-08-16T05:24:07.822Z,4.18
2022-08-16T05:26:37.500Z,4.67
2022-08-16T05:29:11.023Z,3.78
2022-08-16T05:31:48.349Z,4.68
2022-08-16T05:34:21.435Z,4.85
2022-08-16T05:36:52.218Z,4.57
2022-08-16T05:39:22.408Z,4.15
2022-08-16T05:41:51.749Z,4.47
2022-08-16T05:44:25.105Z,5.07
2022-08-16T05:47:00.378Z,5.03
2022-08-16T05:49:38.403Z,4.32
2022-08-16T05:52:11.694Z,4.85
2022-08-16T05:54:46.708Z,4.50
2022-08-16T05:57:16.213Z,5.30
2022-08-16T05:59:43.688Z,4.28
2022-08-16T06:02:10.446Z,5.00
2022-08-16T06:04:40.970Z,4.20
2022-08-16T06:07:24.991Z,4.43
2022-08-16T06:10:09.718Z,4.30
2022-08-16T06:12:38.107Z,5.55
2022-08-16T06:15:11.816Z,5.05
2022-08-16T06:17:44.657Z,5.22
2022-08-16T06:20:34.643Z,4.82
2022-08-16T06:23:03.982Z,4.78
2022-08-16T06:25:52.938Z,4.47
2022-08-16T06:28:34.869Z,5.10
2022-08-16T06:31:06.940Z,4.43
2022-08-16T06:33:41.191Z,4.90
2022-08-16T06:36:11.536Z,4.63
2022-08-16T06:38:55.316Z,4.73
2022-08-16T06:41:39.706Z,3.55
2022-08-16T06:44:20.669Z,4.13
2022-08-16T06:46:50.529Z,4.05
2022-08-16T06:49:19.767Z,3.53
2022-08-16T06:51:48.180Z,4.50
2022-08-16T06:54:20.430Z,5.10
2022-08-16T06:56:47.051Z,4.57
2022-08-16T06:59:19.266Z,4.05
2022-08-16T07:01:55.320Z,3.85
2022-08-16T07:04:31.770Z,4.10
2022-08-16T07:06:59.934Z,3.50
2022-08-16T07:09:29.829Z,3.90
2022-08-16T07:12:03.545Z,4.10
2022-08-16T07:14:35.176Z,3.85
2022-08-16T07:17:08.266Z,3.97
2022-08-16T07:20:29.919Z,3.83
2022-08-16T07:22:37.315Z,4.63
2022-08-16T07:25:16.832Z,4.70
2022-08-16T07:27:44.409Z,4.20
2022-08-16T07:30:39.293Z,3.90
2022-08-16T07:33:07.227Z,4.63
2022-08-16T07:35:36.781Z,4.53
2022-08-16T07:38:11.154Z,4.43
2022-08-16T07:41:00.953Z,4.28
2022-08-16T07:43:30.378Z,4.32
2022-08-16T07:46:01.506Z,5.20
2022-08-16T07:48:30.934Z,4.63
2022-08-16T07:50:59.158Z,4.00
2022-08-16T07:53:30.631Z,4.55
2022-08-16T07:56:00.271Z,4.00
2022-08-16T07:58:36.338Z,5.30
2022-08-16T08:01:10.431Z,5.40
2022-08-16T08:03:49.117Z,4.80
2022-08-16T08:06:22.782Z,5.20
2022-08-16T08:08:57.337Z,5.20
2022-08-16T08:11:28.074Z,5.03
2022-08-16T08:14:03.108Z,3.97
2022-08-16T08:16:32.779Z,4.85
2022-08-16T08:19:02.964Z,5.82
2022-08-16T08:21:58.193Z,5.18
2022-08-16T08:24:22.556Z,4.68
2022-08-16T08:27:02.195Z,6.35
2022-08-16T08:29:36.820Z,4.50
2022-08-16T08:32:58.806Z,5.07
2022-08-16T08:35:03.173Z,4.30
2022-08-16T08:37:55.653Z,5.93
2022-08-16T08:40:28.187Z,4.60
2022-08-16T08:43:11.842Z,5.68
2022-08-16T08:45:53.001Z,5.22
2022-08-16T08:48:33.771Z,4.63
2022-08-16T08:51:11.062Z,5.88
2022-08-16T08:53:57.208Z,6.00
2022-08-16T08:56:29.947Z,5.40
2022-08-16T08:59:13.073Z,5.90
2022-08-16T09:01:42.542Z,6.28
2022-08-16T09:04:14.882Z,5.80
2022-08-16T09:06:45.250Z,5.35
2022-08-16T09:09:16.548Z,5.27
2022-08-16T09:11:53.681Z,5.82
2022-08-16T09:14:33.086Z,5.10
2022-08-16T09:17:03.074Z,5.88
2022-08-16T09:19:40.776Z,5.40
2022-08-16T09:22:20.043Z,5.60
2022-08-16T09:24:52.456Z,5.78
2022-08-16T09:27:23.550Z,5.85
2022-08-16T09:29:59.728Z,4.63
2022-08-16T09:32:30.953Z,5.15
2022-08-16T09:34:59.736Z,6.03
2022-08-16T09:37:29.140Z,6.07
2022-08-16T09:39:58.104Z,5.85
2022-08-16T09:42:28.502Z,5.20
2022-08-16T09:45:11.741Z,4.63
2022-08-16T09:47:56.862Z,6.30
2022-08-16T09:50:33.277Z,6.30
2022-08-16T09:53:15.127Z,5.60
2022-08-16T09:55:49.534Z,5.68
2022-08-16T09:58:41.297Z,5.63
2022-08-16T10:01:11.649Z,5.10
2022-08-16T10:04:01.912Z,5.07
2022-08-16T10:06:27.546Z,5.45
2022-08-16T10:09:05.694Z,5.70
2022-08-16T10:12:17.873Z,4.63
2022-08-16T10:14:46.475Z,4.90
2022-08-16T10:17:13.659Z,5.18
2022-08-16T10:19:41.646Z,5.70
2022-08-16T10:22:10.845Z,6.47
2022-08-16T10:24:40.721Z,5.85
2022-08-16T10:27:27.060Z,5.10
2022-08-16T10:30:00.924Z,5.90
2022-08-16T10:32:34.236Z,5.32
2022-08-16T10:35:03.292Z,6.00
2022-08-16T10:37:32.271Z,5.10
2022-08-16T10:40:06.768Z,5.07
2022-08-16T10:42:53.357Z,4.72
2022-08-16T10:45:20.737Z,5.00
2022-08-16T10:47:48.554Z,5.15
2022-08-16T10:50:28.629Z,4.90
2022-08-16T10:52:59.413Z,5.53
2022-08-16T10:55:44.723Z,4.70
2022-08-16T10:58:17.117Z,4.75
2022-08-16T11:00:46.290Z,4.85
2022-08-16T11:06:03.376Z,5.38
2022-08-16T11:08:37.464Z,4.65
2022-08-16T11:11:11.501Z,4.72
2022-08-16T11:17:02.186Z,5.13
2022-08-16T11:19:15.452Z,4.90
2022-08-16T11:24:41.822Z,5.22
2022-08-16T11:27:23.455Z,5.25
2022-08-16T11:29:55.018Z,5.03
2022-08-16T11:32:31.940Z,5.18
2022-08-16T11:35:13.571Z,4.70
2022-08-16T11:40:44.209Z,4.95
2022-08-16T11:43:12.812Z,4.88
2022-08-16T11:45:44.379Z,5.57
2022-08-16T11:48:21.995Z,4.63
2022-08-16T11:50:48.675Z,5.03
2022-08-16T11:53:15.368Z,5.50
2022-08-16T11:55:44.179Z,6.15
2022-08-16T11:58:12.168Z,6.35
2022-08-16T12:00:51.560Z,4.17
2022-08-16T12:03:31.558Z,5.15
2022-08-16T12:06:25.401Z,4.30
2022-08-16T12:09:00.889Z,4.65
2022-08-16T12:11:31.602Z,4.63
2022-08-16T12:14:00.460Z,5.63
2022-08-16T12:16:31.419Z,4.82
2022-08-16T12:19:02.818Z,4.93
2022-08-16T12:21:57.833Z,4.95
2022-08-16T12:24:17.667Z,4.78
2022-08-16T12:26:44.514Z,4.05
2022-08-16T12:29:11.319Z,4.10
2022-08-16T12:31:37.886Z,4.97
2022-08-16T12:34:28.852Z,4.70
2022-08-16T12:36:55.996Z,5.45
2022-08-16T12:39:22.693Z,4.75
2022-08-16T12:41:49.873Z,4.57
2022-08-16T12:44:20.053Z,4.60
2022-08-16T12:47:06.801Z,4.63
2022-08-16T12:49:41.903Z,4.07
2022-08-16T12:52:09.617Z,4.70
2022-08-16T12:54:57.614Z,4.75
2022-08-16T12:57:25.493Z,4.38
2022-08-16T13:00:07.607Z,4.03
2022-08-16T13:05:07.044Z,4.15
2022-08-16T13:07:37.441Z,4.10
2022-08-16T13:10:20.871Z,4.18
2022-08-16T13:12:58.753Z,4.10
2022-08-16T13:15:28.252Z,4.57
2022-08-16T13:17:56.778Z,4.28
2022-08-16T13:20:25.869Z,4.13
2022-08-16T13:22:58.777Z,3.63
2022-08-16T13:25:26.665Z,3.67
2022-08-16T13:28:01.880Z,4.13
2022-08-16T13:30:41.855Z,3.92
2022-08-16T13:33:13.364Z,4.35
2022-08-16T13:35:44.971Z,4.13
2022-08-16T13:38:24.404Z,4.50
2022-08-16T13:40:56.045Z,4.15
2022-08-16T13:45:50.480Z,3.58
2022-08-16T13:48:24.510Z,4.30
2022-08-16T13:50:54.137Z,3.88
2022-08-16T13:53:24.596Z,3.95
2022-08-16T13:55:58.480Z,4.28
2022-08-16T13:58:37.209Z,4.07
2022-08-16T14:01:15.278Z,4.22
2022-08-16T14:03:44.789Z,4.28
2022-08-16T14:06:12.584Z,4.43
2022-08-16T14:08:42.597Z,4.03
2022-08-16T14:11:14.440Z,4.07
2022-08-16T14:13:43.673Z,4.00
2022-08-16T14:16:23.551Z,4.35
2022-08-16T14:18:53.145Z,4.32
2022-08-16T14:21:23.571Z,4.15
2022-08-16T14:23:52.082Z,4.00
2022-08-16T14:26:21.068Z,4.60
2022-08-16T14:28:50.249Z,3.75
2022-08-16T14:31:17.966Z,4.30
2022-08-16T14:33:45.001Z,4.18
2022-08-16T14:36:11.961Z,3.63
2022-08-16T14:38:45.465Z,4.20
2022-08-16T14:41:13.468Z,3.95
2022-08-16T14:43:40.209Z,3.70
2022-08-16T14:46:07.569Z,3.50
2022-08-16T14:48:34.695Z,3.75
2022-08-16T14:51:01.681Z,3.92
2022-08-16T14:53:28.988Z,3.95
2022-08-16T14:55:59.689Z,4.00
2022-08-16T14:58:34.739Z,3.92
2022-08-16T15:01:04.336Z,4.18
2022-08-16T15:03:33.105Z,3.80
2022-08-16T15:06:04.009Z,3.97
2022-08-16T15:08:34.045Z,4.28
2022-08-16T15:11:03.576Z,4.00
2022-08-16T15:13:30.356Z,4.05
2022-08-16T15:16:02.298Z,3.95
2022-08-16T15:18:31.987Z,3.60
2022-08-16T15:21:00.571Z,4.00
2022-08-16T15:23:28.331Z,3.50
2022-08-16T15:26:03.005Z,3.88
2022-08-16T15:28:37.075Z,4.13
2022-08-16T15:31:09.257Z,3.72
2022-08-16T15:33:44.327Z,3.75
2022-08-16T15:36:17.974Z,5.22
2022-08-16T15:38:56.153Z,4.00
2022-08-16T15:41:54.981Z,3.90
2022-08-16T15:44:25.583Z,3.92
2022-08-16T15:46:59.949Z,4.00
2022-08-16T15:49:36.939Z,3.65
2022-08-16T15:52:06.939Z,3.58
2022-08-16T15:54:37.588Z,4.00
2022-08-16T15:57:19.902Z,4.20
2022-08-16T15:59:52.494Z,4.13
2022-08-16T16:02:27.304Z,3.85
2022-08-16T16:04:56.580Z,3.90
2022-08-16T16:07:23.647Z,3.80
2022-08-16T16:09:53.254Z,3.88
2022-08-16T16:12:51.714Z,4.20
2022-08-16T16:15:07.336Z,4.07
2022-08-16T16:17:34.234Z,3.83
2022-08-16T16:20:04.729Z,4.00
2022-08-16T16:22:31.707Z,4.10
2022-08-16T16:24:58.309Z,4.20
2022-08-16T16:27:25.264Z,3.95
2022-08-16T16:30:01.688Z,3.95
2022-08-16T16:32:33.226Z,4.10
2022-08-16T16:35:02.377Z,3.65
2022-08-16T16:37:30.942Z,4.25
2022-08-16T16:39:57.468Z,3.78
2022-08-16T16:42:29.264Z,4.55
2022-08-16T16:45:01.352Z,3.83
2022-08-16T16:47:29.914Z,3.90
2022-08-16T16:50:09.251Z,4.00
2022-08-16T16:52:43.889Z,4.40
2022-08-16T16:55:14.826Z,4.28
2022-08-16T16:58:00.955Z,4.27
2022-08-16T17:00:38.115Z,4.07
2022-08-16T17:03:06.087Z,4.18
2022-08-16T17:05:57.110Z,3.95
2022-08-16T17:08:29.006Z,3.97
2022-08-16T17:10:56.319Z,4.28
2022-08-16T17:13:24.444Z,4.07
2022-08-16T17:15:52.789Z,3.92
2022-08-16T17:19:02.017Z,3.78
2022-08-16T17:21:08.346Z,3.95
2022-08-16T17:23:59.723Z,3.63
2022-08-16T17:26:22.768Z,3.85
2022-08-16T17:29:02.237Z,3.65
2022-08-16T17:31:40.639Z,3.25
2022-08-16T17:34:29.529Z,3.85
2022-08-16T17:36:54.687Z,3.30
2022-08-16T17:39:21.472Z,3.65
2022-08-16T17:41:51.008Z,3.47
2022-08-16T17:44:19.205Z,3.92
2022-08-16T17:46:52.141Z,3.83
2022-08-16T17:49:19.265Z,3.63
2022-08-16T17:51:45.801Z,3.78
2022-08-16T17:54:18.300Z,3.22
2022-08-16T17:56:56.804Z,3.50
2022-08-16T17:59:24.097Z,3.83
2022-08-16T18:01:50.783Z,3.20
2022-08-16T18:04:48.399Z,3.38
2022-08-16T18:07:05.232Z,3.55
2022-08-16T18:09:31.794Z,3.60
2022-08-16T18:11:58.594Z,3.80
2022-08-16T18:14:51.234Z,3.55
2022-08-16T18:17:12.892Z,3.65
2022-08-16T18:19:39.503Z,3.72
2022-08-16T18:22:18.154Z,3.38
2022-08-16T18:24:46.212Z,3.65
2022-08-16T18:27:26.562Z,4.05
2022-08-16T18:29:54.094Z,3.53
2022-08-16T18:32:24.435Z,3.30
2022-08-16T18:34:51.257Z,3.50
2022-08-16T18:37:17.828Z,3.40
2022-08-16T18:39:44.416Z,3.85
2022-08-16T18:42:13.818Z,3.58
2022-08-16T18:44:42.910Z,3.55
2022-08-16T18:47:09.867Z,3.67
2022-08-16T18:49:36.852Z,3.88
2022-08-16T18:52:04.145Z,3.60
2022-08-16T18:54:33.191Z,3.13
2022-08-16T18:57:01.521Z,3.92
2022-08-16T18:59:32.968Z,3.88
2022-08-16T19:02:04.066Z,3.95
2022-08-16T19:04:56.682Z,4.05
2022-08-16T19:07:30.654Z,3.97
2022-08-16T19:09:58.011Z,3.58
2022-08-16T19:12:47.067Z,3.63
2022-08-16T19:15:15.835Z,3.35
2022-08-16T19:17:44.115Z,3.80
2022-08-16T19:20:12.129Z,3.70
2022-08-16T19:23:02.310Z,4.07
2022-08-16T19:25:47.439Z,3.50
2022-08-16T19:28:50.169Z,3.95
2022-08-16T19:31:10.689Z,3.58
2022-08-16T19:33:39.687Z,4.00
2022-08-16T19:36:06.752Z,4.00
2022-08-16T19:38:34.797Z,3.65
2022-08-16T19:41:01.481Z,3.90
2022-08-16T19:43:28.182Z,4.10
2022-08-16T19:45:54.866Z,4.03
2022-08-16T19:48:22.073Z,3.47
2022-08-16T19:50:49.044Z,3.35
2022-08-16T19:53:19.166Z,3.60
2022-08-16T19:55:47.461Z,4.05
2022-08-16T19:58:15.369Z,4.22
2022-08-16T20:00:43.495Z,3.65
2022-08-16T20:03:15.532Z,4.07
2022-08-16T20:05:43.467Z,3.72
2022-08-16T20:08:11.273Z,3.85
2022-08-16T20:10:40.606Z,4.32
2022-08-16T20:13:14.051Z,3.78
2022-08-16T20:15:41.724Z,3.55
2022-08-16T20:18:17.220Z,4.00
2022-08-16T20:20:51.882Z,4.10
2022-08-16T20:23:24.853Z,4.20
2022-08-16T20:25:55.806Z,4.07
2022-08-16T20:28:39.419Z,3.67
2022-08-16T20:31:11.355Z,4.25
2022-08-16T20:33:37.921Z,4.40
2022-08-16T20:36:04.548Z,4.13
2022-08-16T20:38:31.192Z,4.63
2022-08-16T20:40:57.753Z,4.35
2022-08-16T20:43:24.408Z,4.65
2022-08-16T20:45:50.945Z,4.00
2022-08-16T20:48:17.623Z,3.85
2022-08-16T20:50:44.986Z,4.90
2022-08-16T20:53:11.728Z,5.13
2022-08-16T20:55:40.060Z,3.42
2022-08-16T20:58:07.783Z,4.13
2022-08-16T21:00:34.504Z,5.10
2022-08-16T21:03:06.569Z,4.07
2022-08-16T21:05:34.184Z,5.10
2022-08-16T21:08:00.774Z,4.20
2022-08-16T21:10:27.470Z,4.28
2022-08-16T21:13:02.729Z,4.18
2022-08-16T21:15:32.256Z,4.32
2022-08-16T21:18:00.147Z,4.13
2022-08-16T21:20:28.008Z,4.05
2022-08-16T21:23:01.915Z,4.18
2022-08-16T21:25:29.862Z,3.95
2022-08-16T21:28:39.908Z,4.32
2022-08-16T21:30:44.241Z,4.13
2022-08-16T21:33:17.787Z,4.18
2022-08-16T21:35:46.806Z,3.95
2022-08-16T21:38:28.855Z,3.90
2022-08-16T21:40:58.355Z,4.70
2022-08-16T21:43:25.457Z,3.88
2022-08-16T21:45:56.006Z,4.47
2022-08-16T21:48:34.605Z,4.20
2022-08-16T21:51:08.492Z,4.50
2022-08-16T21:53:36.192Z,4.43
2022-08-16T21:56:05.553Z,4.82
2022-08-16T21:58:32.533Z,4.63
2022-08-16T22:01:00.513Z,3.85
2022-08-16T22:03:27.926Z,4.55
2022-08-16T22:06:12.408Z,4.35
2022-08-16T22:08:49.885Z,3.90
2022-08-16T22:11:19.742Z,4.25
2022-08-16T22:13:57.259Z,4.55
2022-08-16T22:16:27.644Z,4.88
2022-08-16T22:18:54.559Z,4.38
2022-08-16T22:21:21.255Z,3.92
2022-08-16T22:23:57.183Z,4.95
2022-08-16T22:26:31.007Z,4.45
2022-08-16T22:29:04.491Z,4.60
2022-08-16T22:31:31.376Z,4.53
2022-08-16T22:33:58.306Z,4.60
2022-08-16T22:36:28.291Z,5.25
2022-08-16T22:38:58.703Z,5.43
2022-08-16T22:41:28.361Z,5.15
2022-08-16T22:43:55.692Z,4.40
2022-08-16T22:46:22.729Z,5.47
2022-08-16T22:48:50.693Z,5.43
2022-08-16T22:51:19.570Z,4.50
2022-08-16T22:53:46.217Z,4.70
2022-08-16T22:56:12.985Z,4.57
2022-08-16T22:58:39.575Z,4.70
2022-08-16T23:01:08.011Z,4.90
2022-08-16T23:03:35.749Z,4.22
2022-08-16T23:06:02.386Z,4.30
2022-08-16T23:08:39.539Z,4.95
2022-08-16T23:11:19.013Z,4.60
2022-08-16T23:13:49.833Z,4.72
2022-08-16T23:16:23.402Z,5.05
2022-08-16T23:18:52.900Z,3.90
2022-08-16T23:21:19.732Z,5.20
2022-08-16T23:23:48.989Z,4.95
2022-08-16T23:26:44.591Z,4.57
2022-08-16T23:29:05.401Z,4.13
2022-08-16T23:31:33.156Z,4.85
2022-08-16T23:34:00.286Z,4.60
2022-08-16T23:36:26.885Z,4.40
2022-08-16T23:38:53.692Z,4.68
2022-08-16T23:41:20.353Z,4.95
2022-08-16T23:43:46.975Z,4.57
2022-08-16T23:46:16.918Z,4.82
2022-08-16T23:50:01.699Z,4.75
2022-08-16T23:51:30.935Z,4.15
2022-08-16T23:53:57.483Z,4.88
2022-08-16T23:56:25.547Z,4.75
2022-08-16T23:58:58.278Z,4.78
